Peace — WBF3649 — position and weather

sailwx.info

Track history (hours):
 
Tides and Currents Weather Stations Pressure Air Temp Water Temp Dewpoint Dewpoint Depression Visibility Wind Speed Wind Dir Waves Ship Positions

Peace

Owner: BOWMAN, ERIC L, VENTURA, CA. More information available from US FCC via Universal Licensing System and Coast Guard Vessel Documentation Center.

Last reported at 2017-Oct-18 22:30 UTC. Time now 2017-Oct-18 22:41 UTC.
Position N 34°15' W 119°16'.

Length 20 m.

Type: Diving. MMSI: 367166830.

Date/timePositionNaut miles runAvg speedWind from/ knotsBaromVisibWave heightAir tempDewpointWater temp
2017-Oct-18 22:30N 34°15' W 119°16'0 0.0
2017-Oct-18 22:00N 34°15' W 119°16'0 0.0
2017-Oct-18 21:30N 34°15' W 119°16'0 0.0
2017-Oct-18 20:57N 34°15' W 119°16'0 0.0
2017-Oct-18 20:30N 34°15' W 119°16'0 0.0
2017-Oct-18 19:54N 34°15' W 119°16'0 0.0
2017-Oct-18 19:21N 34°15' W 119°16'0 0.0
2017-Oct-18 19:00N 34°15' W 119°16'0 0.0
2017-Oct-18 17:42N 34°15' W 119°16'0 0.0
2017-Oct-18 17:30N 34°15' W 119°16'0 0.0
2017-Oct-18 16:57N 34°15' W 119°16'0 0.0
2017-Oct-18 16:27N 34°15' W 119°16'0 0.0
2017-Oct-18 15:57N 34°15' W 119°16'0 0.0
2017-Oct-18 15:27N 34°15' W 119°16'0 0.0
2017-Oct-18 14:45N 34°15' W 119°16'0 0.0
2017-Oct-18 13:15N 34°15' W 119°16'0 0.0
2017-Oct-18 12:18N 34°15' W 119°16'0 0.0
2017-Oct-18 11:57N 34°15' W 119°16'0 0.0
2017-Oct-18 11:27N 34°15' W 119°16'0 0.0
2017-Oct-18 09:54N 34°15' W 119°16'0 0.0
2017-Oct-18 09:12N 34°15' W 119°16'0 0.0
2017-Oct-18 09:00N 34°15' W 119°16'0 0.0
2017-Oct-18 08:30N 34°15' W 119°16'0 0.0
2017-Oct-18 07:51N 34°15' W 119°16'0 0.0
2017-Oct-18 07:30N 34°15' W 119°16'0 0.0
2017-Oct-18 06:48N 34°15' W 119°16'0 0.0
2017-Oct-18 06:24N 34°15' W 119°16'0 0.0
2017-Oct-18 05:54N 34°15' W 119°16'0 0.0
2017-Oct-18 05:30N 34°15' W 119°16'0 0.0
2017-Oct-18 04:57N 34°15' W 119°16'0 0.0
2017-Oct-18 04:30N 34°15' W 119°16'0 0.0
2017-Oct-18 03:51N 34°15' W 119°16'0 0.0
2017-Oct-18 03:21N 34°15' W 119°16'0 0.0
2017-Oct-18 03:00N 34°15' W 119°16'0 0.0
2017-Oct-18 02:21N 34°15' W 119°16'0 0.0
2017-Oct-18 01:57N 34°15' W 119°16'0 0.0
2017-Oct-18 01:21N 34°15' W 119°16'0 0.0
2017-Oct-18 01:00N 34°15' W 119°16'0 0.0
2017-Oct-18 00:30N 34°15' W 119°16'0 0.0
2017-Oct-17 23:57N 34°15' W 119°16'0 0.0
2017-Oct-17 23:27N 34°15' W 119°16'0 0.0
2017-Oct-17 23:00N 34°15' W 119°16'0 0.0
2017-Oct-17 22:27N 34°15' W 119°16'0 0.0
2017-Oct-17 21:45N 34°15' W 119°16'0 0.0
2017-Oct-17 21:27N 34°15' W 119°16'0 0.0
2017-Oct-17 20:45N 34°15' W 119°16'0 0.0
2017-Oct-17 20:30N 34°15' W 119°16'0 0.0
2017-Oct-17 19:57N 34°15' W 119°16'0 0.0
2017-Oct-17 19:27N 34°15' W 119°16'0 0.0
2017-Oct-17 19:00N 34°15' W 119°16'0 0.3
2017-Oct-17 18:25N 34°14' W 119°16'0 0.4
2017-Oct-17 18:00N 34°15' W 119°16'0 0.0
2017-Oct-17 17:27N 34°15' W 119°16'4 6.7
2017-Oct-17 16:50N 34°12' W 119°19'6 9.6
2017-Oct-17 16:12N 34°06' W 119°22'6 3.5
2017-Oct-17 14:36N 34°01' W 119°25'0 0.0
2017-Oct-17 14:27N 34°01' W 119°25'1 0.2
2017-Oct-17 11:10N 34°00' W 119°25'0 0.0
2017-Oct-17 10:57N 34°00' W 119°25'0 0.0
2017-Oct-17 10:30N 34°00' W 119°25'2 3.6
2017-Oct-17 09:59N 33°59' W 119°25'5 8.9
2017-Oct-17 09:27N 33°54' W 119°22'5 9.3
2017-Oct-17 08:58N 33°51' W 119°19'4 9.5
2017-Oct-17 08:30N 33°47' W 119°16'5 9.5
2017-Oct-17 08:00N 33°43' W 119°13'5 9.0
2017-Oct-17 07:26N 33°39' W 119°09'4 9.0
2017-Oct-17 06:58N 33°35' W 119°07'4 8.9
2017-Oct-17 06:29N 33°31' W 119°04'4 0.5
2017-Oct-16 22:17N 33°28' W 119°03'1 0.2
2017-Oct-16 19:36N 33°28' W 119°03'0 0.0
2017-Oct-16 19:21N 33°28' W 119°03'1 0.3
2017-Oct-16 15:43N 33°29' W 119°03'1 3.8
2017-Oct-16 15:29N 33°29' W 119°03'0 0.0
2017-Oct-16 14:59N 33°29' W 119°03'0 0.0
2017-Oct-16 14:23N 33°29' W 119°03'2 0.2
2017-Oct-16 04:43N 33°29' W 119°02'1 1.2
2017-Oct-16 03:41N 33°29' W 119°03'0 0.0
2017-Oct-16 03:29N 33°29' W 119°03'0 0.0
2017-Oct-16 01:59N 33°29' W 119°03'1 0.2
2017-Oct-15 21:24N 33°29' W 119°02'0 0.1
2017-Oct-15 20:51N 33°29' W 119°02'1 0.7
2017-Oct-15 19:17N 33°29' W 119°03'1 1.8
2017-Oct-15 18:54N 33°29' W 119°03'1 0.2
2017-Oct-15 16:21N 33°29' W 119°03'4 1.5
2017-Oct-15 13:52N 33°33' W 119°03'4 8.7
2017-Oct-15 13:24N 33°37' W 119°05'3 8.8
2017-Oct-15 13:00N 33°40' W 119°06'5 9.0
2017-Oct-15 12:30N 33°44' W 119°08'7 9.3
2017-Oct-15 11:43N 33°51' W 119°10'3 9.5
2017-Oct-15 11:25N 33°54' W 119°11'4 9.6
2017-Oct-15 10:58N 33°58' W 119°12'5 9.3
2017-Oct-15 10:24N 34°03' W 119°14'4 9.3
2017-Oct-15 09:57N 34°07' W 119°15'6 9.7
2017-Oct-15 09:20N 34°13' W 119°16'1 0.1
2017-Oct-14 22:58N 34°15' W 119°16'5 7.3
2017-Oct-14 22:15N 34°11' W 119°20'2 9.5
2017-Oct-14 22:00N 34°09' W 119°22'5 9.2
2017-Oct-14 21:25N 34°04' W 119°25'4 2.6
2017-Oct-14 19:58N 34°00' W 119°26'14 2.1
2017-Oct-14 13:16N 33°58' W 119°43'0 0.0
2017-Oct-14 12:58N 33°58' W 119°43'0 0.0
2017-Oct-13 05:22N 33°58' W 119°43'0 0.0
2017-Oct-13 04:40N 33°58' W 119°43'8 1.7
2017-Oct-12 23:54N 33°57' W 119°53'4 9.2
2017-Oct-12 23:29N 33°56' W 119°57'1 0.2
2017-Oct-12 17:58N 33°56' W 119°58'0 0.0
2017-Oct-12 17:08N 33°56' W 119°58'0 0.0
2017-Oct-12 16:55N 33°56' W 119°58'1 1.3
2017-Oct-12 16:29N 33°57' W 119°58'0 0.1
2017-Oct-12 15:58N 33°57' W 119°58'0 0.0
2017-Oct-12 15:27N 33°57' W 119°58'0 0.1
2017-Oct-12 15:00N 33°57' W 119°58'2 3.8
2017-Oct-12 14:29N 33°57' W 119°56'20 9.5
2017-Oct-12 12:21N 34°00' W 119°32'4 8.7
2017-Oct-12 11:52N 34°04' W 119°29'3 8.8
2017-Oct-12 11:30N 34°06' W 119°27'4 9.0
2017-Oct-12 11:00N 34°09' W 119°23'5 9.4
2017-Oct-12 10:30N 34°13' W 119°19'3 6.1
2017-Oct-12 10:00N 34°15' W 119°16'0 0.0
2017-Oct-12 09:30N 34°15' W 119°16'0 0.0
2017-Oct-12 08:57N 34°15' W 119°16'0 0.0
2017-Oct-12 08:30N 34°15' W 119°16'0 0.0
2017-Oct-12 07:57N 34°15' W 119°16'0 0.0
2017-Oct-12 07:27N 34°15' W 119°16'0 0.0
2017-Oct-12 07:00N 34°15' W 119°16'0 0.0
2017-Oct-12 06:24N 34°15' W 119°16'0 0.0
2017-Oct-12 06:00N 34°15' W 119°16'0 0.0
2017-Oct-12 05:30N 34°15' W 119°16'0 0.0
2017-Oct-12 04:57N 34°15' W 119°16'0 0.0
2017-Oct-12 04:30N 34°15' W 119°16'0 0.0
2017-Oct-12 04:00N 34°15' W 119°16'0 0.0
2017-Oct-12 03:30N 34°15' W 119°16'0 0.0
2017-Oct-12 02:54N 34°15' W 119°16'0 0.0
2017-Oct-12 02:30N 34°15' W 119°16'0 0.0
2017-Oct-12 01:54N 34°15' W 119°16'2 4.0
2017-Oct-12 01:30N 34°13' W 119°16'4 8.5
2017-Oct-12 00:59N 34°09' W 119°15'4 8.6
2017-Oct-12 00:29N 34°04' W 119°15'4 8.8
2017-Oct-12 00:00N 34°00' W 119°14'5 8.7
2017-Oct-11 23:28N 33°56' W 119°12'4 9.0
2017-Oct-11 23:00N 33°52' W 119°11'5 8.9
2017-Oct-11 22:29N 33°47' W 119°10'4 8.9
2017-Oct-11 21:59N 33°43' W 119°08'4 8.8
2017-Oct-11 21:30N 33°39' W 119°06'10 8.7
2017-Oct-11 20:19N 33°29' W 119°03'0 0.0
2017-Oct-11 19:57N 33°29' W 119°03'0 0.0
2017-Oct-11 19:30N 33°29' W 119°03'0 0.0
2017-Oct-11 18:51N 33°29' W 119°03'1 0.5
2017-Oct-11 16:50N 33°28' W 119°03'13 0.4
2017-Oct-10 10:02N 33°18' W 119°12'1 9.1
2017-Oct-10 09:54N 33°19' W 119°12'4 9.0
2017-Oct-10 09:30N 33°22' W 119°12'6 9.5
2017-Oct-10 08:54N 33°28' W 119°12'7 9.9
2017-Oct-10 08:09N 33°35' W 119°13'310.0
2017-Oct-10 07:52N 33°38' W 119°13'410.0
2017-Oct-10 07:27N 33°43' W 119°13'510.1
2017-Oct-10 06:57N 33°47' W 119°14'510.1
2017-Oct-10 06:30N 33°52' W 119°15'5 9.9
2017-Oct-10 06:00N 33°57' W 119°15'5 9.6
2017-Oct-10 05:30N 34°02' W 119°16'5 9.6
2017-Oct-10 04:59N 34°07' W 119°16'5 9.5
2017-Oct-10 04:30N 34°11' W 119°16'3 2.8
2017-Oct-10 03:18N 34°15' W 119°16'0 0.0
2017-Oct-10 03:00N 34°15' W 119°16'0 0.0
2017-Oct-10 02:24N 34°15' W 119°16'0 0.0
2017-Oct-10 02:00N 34°15' W 119°16'0 0.0
2017-Oct-10 01:30N 34°15' W 119°16'0 0.0
2017-Oct-10 01:00N 34°15' W 119°16'0 0.0
2017-Oct-10 00:30N 34°15' W 119°16'0 0.0
2017-Oct-09 23:45N 34°15' W 119°16'0 0.0
2017-Oct-09 23:17N 34°15' W 119°16'0 0.4
2017-Oct-09 22:51N 34°14' W 119°16'0 0.0
2017-Oct-09 22:30N 34°14' W 119°16'0 0.2
2017-Oct-09 21:49N 34°15' W 119°16'0 0.0
2017-Oct-09 21:28N 34°15' W 119°16'0 0.0
2017-Oct-09 20:52N 34°15' W 119°16'0 0.0
2017-Oct-09 20:13N 34°15' W 119°16'0 0.0
2017-Oct-09 19:58N 34°15' W 119°16'0 0.0
2017-Oct-09 19:25N 34°15' W 119°16'0 0.0
2017-Oct-09 18:55N 34°15' W 119°16'0 0.0
2017-Oct-09 18:28N 34°15' W 119°16'0 0.0
2017-Oct-09 17:43N 34°15' W 119°16'0 0.0
2017-Oct-09 16:34N 34°15' W 119°16'0 0.0
2017-Oct-09 16:25N 34°15' W 119°16'0 0.0
2017-Oct-09 15:55N 34°15' W 119°16'0 0.0
2017-Oct-09 15:25N 34°15' W 119°16'0 0.0
2017-Oct-09 14:58N 34°15' W 119°16'0 0.0
2017-Oct-09 14:25N 34°15' W 119°16'0 0.0
2017-Oct-09 13:25N 34°15' W 119°16'0 0.0
2017-Oct-09 12:58N 34°15' W 119°16'0 0.0
2017-Oct-09 11:50N 34°15' W 119°16'0 0.0
2017-Oct-09 11:16N 34°15' W 119°16'0 0.0
2017-Oct-09 10:58N 34°15' W 119°16'0 0.0
2017-Oct-09 10:16N 34°15' W 119°16'0 0.0
2017-Oct-09 09:58N 34°15' W 119°16'0 0.0
2017-Oct-09 09:22N 34°15' W 119°16'0 0.0
2017-Oct-09 08:55N 34°15' W 119°16'0 0.0
2017-Oct-09 08:28N 34°15' W 119°16'0 0.0
2017-Oct-09 07:43N 34°15' W 119°16'0 0.0
2017-Oct-09 07:19N 34°15' W 119°16'0 0.0
2017-Oct-09 05:31N 34°15' W 119°16'0 0.0
2017-Oct-09 05:11N 34°15' W 119°16'0 0.0
2017-Oct-09 04:55N 34°15' W 119°16'0 0.0
2017-Oct-09 04:09N 34°15' W 119°16'0 0.2
2017-Oct-09 03:51N 34°15' W 119°16'3 6.9
2017-Oct-09 03:27N 34°13' W 119°19'4 9.4
2017-Oct-09 02:58N 34°10' W 119°23'6 9.0
2017-Oct-09 02:20N 34°06' W 119°27'3 9.0
2017-Oct-09 01:59N 34°03' W 119°30'2 3.3
2017-Oct-09 01:25N 34°02' W 119°31'0 0.1
2017-Oct-09 00:38N 34°02' W 119°31'0 0.0
2017-Oct-09 00:26N 34°02' W 119°31'0 0.0
2017-Oct-08 23:50N 34°02' W 119°31'  
Track history (hours):
 
Tides and Currents Weather Stations Pressure Air Temp Water Temp Dewpoint Dewpoint Depression Visibility Wind Speed Wind Dir Waves Ship Positions

Peace

Owner: BOWMAN, ERIC L, VENTURA, CA. More information available from US FCC via Universal Licensing System and Coast Guard Vessel Documentation Center.

Last reported at 2017-Oct-18 22:30 UTC. Time now 2017-Oct-18 22:41 UTC.
Position N 34°15' W 119°16'.

Length 20 m.

Type: Diving. MMSI: 367166830.

Date/timePositionNaut miles runAvg speedWind from/ knotsBaromVisibWave heightAir tempDewpointWater temp
2017-Oct-18 22:30N 34°15' W 119°16'0 0.0
2017-Oct-18 22:00N 34°15' W 119°16'0 0.0
2017-Oct-18 21:30N 34°15' W 119°16'0 0.0
2017-Oct-18 20:57N 34°15' W 119°16'0 0.0
2017-Oct-18 20:30N 34°15' W 119°16'0 0.0
2017-Oct-18 19:54N 34°15' W 119°16'0 0.0
2017-Oct-18 19:21N 34°15' W 119°16'0 0.0
2017-Oct-18 19:00N 34°15' W 119°16'0 0.0
2017-Oct-18 17:42N 34°15' W 119°16'0 0.0
2017-Oct-18 17:30N 34°15' W 119°16'0 0.0
2017-Oct-18 16:57N 34°15' W 119°16'0 0.0
2017-Oct-18 16:27N 34°15' W 119°16'0 0.0
2017-Oct-18 15:57N 34°15' W 119°16'0 0.0
2017-Oct-18 15:27N 34°15' W 119°16'0 0.0
2017-Oct-18 14:45N 34°15' W 119°16'0 0.0
2017-Oct-18 13:15N 34°15' W 119°16'0 0.0
2017-Oct-18 12:18N 34°15' W 119°16'0 0.0
2017-Oct-18 11:57N 34°15' W 119°16'0 0.0
2017-Oct-18 11:27N 34°15' W 119°16'0 0.0
2017-Oct-18 09:54N 34°15' W 119°16'0 0.0
2017-Oct-18 09:12N 34°15' W 119°16'0 0.0
2017-Oct-18 09:00N 34°15' W 119°16'0 0.0
2017-Oct-18 08:30N 34°15' W 119°16'0 0.0
2017-Oct-18 07:51N 34°15' W 119°16'0 0.0
2017-Oct-18 07:30N 34°15' W 119°16'0 0.0
2017-Oct-18 06:48N 34°15' W 119°16'0 0.0
2017-Oct-18 06:24N 34°15' W 119°16'0 0.0
2017-Oct-18 05:54N 34°15' W 119°16'0 0.0
2017-Oct-18 05:30N 34°15' W 119°16'0 0.0
2017-Oct-18 04:57N 34°15' W 119°16'0 0.0
2017-Oct-18 04:30N 34°15' W 119°16'0 0.0
2017-Oct-18 03:51N 34°15' W 119°16'0 0.0
2017-Oct-18 03:21N 34°15' W 119°16'0 0.0
2017-Oct-18 03:00N 34°15' W 119°16'0 0.0
2017-Oct-18 02:21N 34°15' W 119°16'0 0.0
2017-Oct-18 01:57N 34°15' W 119°16'0 0.0
2017-Oct-18 01:21N 34°15' W 119°16'0 0.0
2017-Oct-18 01:00N 34°15' W 119°16'0 0.0
2017-Oct-18 00:30N 34°15' W 119°16'0 0.0
2017-Oct-17 23:57N 34°15' W 119°16'0 0.0
2017-Oct-17 23:27N 34°15' W 119°16'0 0.0
2017-Oct-17 23:00N 34°15' W 119°16'0 0.0
2017-Oct-17 22:27N 34°15' W 119°16'0 0.0
2017-Oct-17 21:45N 34°15' W 119°16'0 0.0
2017-Oct-17 21:27N 34°15' W 119°16'0 0.0
2017-Oct-17 20:45N 34°15' W 119°16'0 0.0
2017-Oct-17 20:30N 34°15' W 119°16'0 0.0
2017-Oct-17 19:57N 34°15' W 119°16'0 0.0
2017-Oct-17 19:27N 34°15' W 119°16'0 0.0
2017-Oct-17 19:00N 34°15' W 119°16'0 0.3
2017-Oct-17 18:25N 34°14' W 119°16'0 0.4
2017-Oct-17 18:00N 34°15' W 119°16'0 0.0
2017-Oct-17 17:27N 34°15' W 119°16'4 6.7
2017-Oct-17 16:50N 34°12' W 119°19'6 9.6
2017-Oct-17 16:12N 34°06' W 119°22'6 3.5
2017-Oct-17 14:36N 34°01' W 119°25'0 0.0
2017-Oct-17 14:27N 34°01' W 119°25'1 0.2
2017-Oct-17 11:10N 34°00' W 119°25'0 0.0
2017-Oct-17 10:57N 34°00' W 119°25'0 0.0
2017-Oct-17 10:30N 34°00' W 119°25'2 3.6
2017-Oct-17 09:59N 33°59' W 119°25'5 8.9
2017-Oct-17 09:27N 33°54' W 119°22'5 9.3
2017-Oct-17 08:58N 33°51' W 119°19'4 9.5
2017-Oct-17 08:30N 33°47' W 119°16'5 9.5
2017-Oct-17 08:00N 33°43' W 119°13'5 9.0
2017-Oct-17 07:26N 33°39' W 119°09'4 9.0
2017-Oct-17 06:58N 33°35' W 119°07'4 8.9
2017-Oct-17 06:29N 33°31' W 119°04'4 0.5
2017-Oct-16 22:17N 33°28' W 119°03'1 0.2
2017-Oct-16 19:36N 33°28' W 119°03'0 0.0
2017-Oct-16 19:21N 33°28' W 119°03'1 0.3
2017-Oct-16 15:43N 33°29' W 119°03'1 3.8
2017-Oct-16 15:29N 33°29' W 119°03'0 0.0
2017-Oct-16 14:59N 33°29' W 119°03'0 0.0
2017-Oct-16 14:23N 33°29' W 119°03'2 0.2
2017-Oct-16 04:43N 33°29' W 119°02'1 1.2
2017-Oct-16 03:41N 33°29' W 119°03'0 0.0
2017-Oct-16 03:29N 33°29' W 119°03'0 0.0
2017-Oct-16 01:59N 33°29' W 119°03'1 0.2
2017-Oct-15 21:24N 33°29' W 119°02'0 0.1
2017-Oct-15 20:51N 33°29' W 119°02'1 0.7
2017-Oct-15 19:17N 33°29' W 119°03'1 1.8
2017-Oct-15 18:54N 33°29' W 119°03'1 0.2
2017-Oct-15 16:21N 33°29' W 119°03'4 1.5
2017-Oct-15 13:52N 33°33' W 119°03'4 8.7
2017-Oct-15 13:24N 33°37' W 119°05'3 8.8
2017-Oct-15 13:00N 33°40' W 119°06'5 9.0
2017-Oct-15 12:30N 33°44' W 119°08'7 9.3
2017-Oct-15 11:43N 33°51' W 119°10'3 9.5
2017-Oct-15 11:25N 33°54' W 119°11'4 9.6
2017-Oct-15 10:58N 33°58' W 119°12'5 9.3
2017-Oct-15 10:24N 34°03' W 119°14'4 9.3
2017-Oct-15 09:57N 34°07' W 119°15'6 9.7
2017-Oct-15 09:20N 34°13' W 119°16'1 0.1
2017-Oct-14 22:58N 34°15' W 119°16'5 7.3
2017-Oct-14 22:15N 34°11' W 119°20'2 9.5
2017-Oct-14 22:00N 34°09' W 119°22'5 9.2
2017-Oct-14 21:25N 34°04' W 119°25'4 2.6
2017-Oct-14 19:58N 34°00' W 119°26'14 2.1
2017-Oct-14 13:16N 33°58' W 119°43'0 0.0
2017-Oct-14 12:58N 33°58' W 119°43'0 0.0
2017-Oct-13 05:22N 33°58' W 119°43'0 0.0
2017-Oct-13 04:40N 33°58' W 119°43'8 1.7
2017-Oct-12 23:54N 33°57' W 119°53'4 9.2
2017-Oct-12 23:29N 33°56' W 119°57'1 0.2
2017-Oct-12 17:58N 33°56' W 119°58'0 0.0
2017-Oct-12 17:08N 33°56' W 119°58'0 0.0
2017-Oct-12 16:55N 33°56' W 119°58'1 1.3
2017-Oct-12 16:29N 33°57' W 119°58'0 0.1
2017-Oct-12 15:58N 33°57' W 119°58'0 0.0
2017-Oct-12 15:27N 33°57' W 119°58'0 0.1
2017-Oct-12 15:00N 33°57' W 119°58'2 3.8
2017-Oct-12 14:29N 33°57' W 119°56'20 9.5
2017-Oct-12 12:21N 34°00' W 119°32'4 8.7
2017-Oct-12 11:52N 34°04' W 119°29'3 8.8
2017-Oct-12 11:30N 34°06' W 119°27'4 9.0
2017-Oct-12 11:00N 34°09' W 119°23'5 9.4
2017-Oct-12 10:30N 34°13' W 119°19'3 6.1
2017-Oct-12 10:00N 34°15' W 119°16'0 0.0
2017-Oct-12 09:30N 34°15' W 119°16'0 0.0
2017-Oct-12 08:57N 34°15' W 119°16'0 0.0
2017-Oct-12 08:30N 34°15' W 119°16'0 0.0
2017-Oct-12 07:57N 34°15' W 119°16'0 0.0
2017-Oct-12 07:27N 34°15' W 119°16'0 0.0
2017-Oct-12 07:00N 34°15' W 119°16'0 0.0
2017-Oct-12 06:24N 34°15' W 119°16'0 0.0
2017-Oct-12 06:00N 34°15' W 119°16'0 0.0
2017-Oct-12 05:30N 34°15' W 119°16'0 0.0
2017-Oct-12 04:57N 34°15' W 119°16'0 0.0
2017-Oct-12 04:30N 34°15' W 119°16'0 0.0
2017-Oct-12 04:00N 34°15' W 119°16'0 0.0
2017-Oct-12 03:30N 34°15' W 119°16'0 0.0
2017-Oct-12 02:54N 34°15' W 119°16'0 0.0
2017-Oct-12 02:30N 34°15' W 119°16'0 0.0
2017-Oct-12 01:54N 34°15' W 119°16'2 4.0
2017-Oct-12 01:30N 34°13' W 119°16'4 8.5
2017-Oct-12 00:59N 34°09' W 119°15'4 8.6
2017-Oct-12 00:29N 34°04' W 119°15'4 8.8
2017-Oct-12 00:00N 34°00' W 119°14'5 8.7
2017-Oct-11 23:28N 33°56' W 119°12'4 9.0
2017-Oct-11 23:00N 33°52' W 119°11'5 8.9
2017-Oct-11 22:29N 33°47' W 119°10'4 8.9
2017-Oct-11 21:59N 33°43' W 119°08'4 8.8
2017-Oct-11 21:30N 33°39' W 119°06'10 8.7
2017-Oct-11 20:19N 33°29' W 119°03'0 0.0
2017-Oct-11 19:57N 33°29' W 119°03'0 0.0
2017-Oct-11 19:30N 33°29' W 119°03'0 0.0
2017-Oct-11 18:51N 33°29' W 119°03'1 0.5
2017-Oct-11 16:50N 33°28' W 119°03'13 0.4
2017-Oct-10 10:02N 33°18' W 119°12'1 9.1
2017-Oct-10 09:54N 33°19' W 119°12'4 9.0
2017-Oct-10 09:30N 33°22' W 119°12'6 9.5
2017-Oct-10 08:54N 33°28' W 119°12'7 9.9
2017-Oct-10 08:09N 33°35' W 119°13'310.0
2017-Oct-10 07:52N 33°38' W 119°13'410.0
2017-Oct-10 07:27N 33°43' W 119°13'510.1
2017-Oct-10 06:57N 33°47' W 119°14'510.1
2017-Oct-10 06:30N 33°52' W 119°15'5 9.9
2017-Oct-10 06:00N 33°57' W 119°15'5 9.6
2017-Oct-10 05:30N 34°02' W 119°16'5 9.6
2017-Oct-10 04:59N 34°07' W 119°16'5 9.5
2017-Oct-10 04:30N 34°11' W 119°16'3 2.8
2017-Oct-10 03:18N 34°15' W 119°16'0 0.0
2017-Oct-10 03:00N 34°15' W 119°16'0 0.0
2017-Oct-10 02:24N 34°15' W 119°16'0 0.0
2017-Oct-10 02:00N 34°15' W 119°16'0 0.0
2017-Oct-10 01:30N 34°15' W 119°16'0 0.0
2017-Oct-10 01:00N 34°15' W 119°16'0 0.0
2017-Oct-10 00:30N 34°15' W 119°16'0 0.0
2017-Oct-09 23:45N 34°15' W 119°16'0 0.0
2017-Oct-09 23:17N 34°15' W 119°16'0 0.4
2017-Oct-09 22:51N 34°14' W 119°16'0 0.0
2017-Oct-09 22:30N 34°14' W 119°16'0 0.2
2017-Oct-09 21:49N 34°15' W 119°16'0 0.0
2017-Oct-09 21:28N 34°15' W 119°16'0 0.0
2017-Oct-09 20:52N 34°15' W 119°16'0 0.0
2017-Oct-09 20:13N 34°15' W 119°16'0 0.0
2017-Oct-09 19:58N 34°15' W 119°16'0 0.0
2017-Oct-09 19:25N 34°15' W 119°16'0 0.0
2017-Oct-09 18:55N 34°15' W 119°16'0 0.0
2017-Oct-09 18:28N 34°15' W 119°16'0 0.0
2017-Oct-09 17:43N 34°15' W 119°16'0 0.0
2017-Oct-09 16:34N 34°15' W 119°16'0 0.0
2017-Oct-09 16:25N 34°15' W 119°16'0 0.0
2017-Oct-09 15:55N 34°15' W 119°16'0 0.0
2017-Oct-09 15:25N 34°15' W 119°16'0 0.0
2017-Oct-09 14:58N 34°15' W 119°16'0 0.0
2017-Oct-09 14:25N 34°15' W 119°16'0 0.0
2017-Oct-09 13:25N 34°15' W 119°16'0 0.0
2017-Oct-09 12:58N 34°15' W 119°16'0 0.0
2017-Oct-09 11:50N 34°15' W 119°16'0 0.0
2017-Oct-09 11:16N 34°15' W 119°16'0 0.0
2017-Oct-09 10:58N 34°15' W 119°16'0 0.0
2017-Oct-09 10:16N 34°15' W 119°16'0 0.0
2017-Oct-09 09:58N 34°15' W 119°16'0 0.0
2017-Oct-09 09:22N 34°15' W 119°16'0 0.0
2017-Oct-09 08:55N 34°15' W 119°16'0 0.0
2017-Oct-09 08:28N 34°15' W 119°16'0 0.0
2017-Oct-09 07:43N 34°15' W 119°16'0 0.0
2017-Oct-09 07:19N 34°15' W 119°16'0 0.0
2017-Oct-09 05:31N 34°15' W 119°16'0 0.0
2017-Oct-09 05:11N 34°15' W 119°16'0 0.0
2017-Oct-09 04:55N 34°15' W 119°16'0 0.0
2017-Oct-09 04:09N 34°15' W 119°16'0 0.2
2017-Oct-09 03:51N 34°15' W 119°16'3 6.9
2017-Oct-09 03:27N 34°13' W 119°19'4 9.4
2017-Oct-09 02:58N 34°10' W 119°23'6 9.0
2017-Oct-09 02:20N 34°06' W 119°27'3 9.0
2017-Oct-09 01:59N 34°03' W 119°30'2 3.3
2017-Oct-09 01:25N 34°02' W 119°31'0 0.1
2017-Oct-09 00:38N 34°02' W 119°31'0 0.0
2017-Oct-09 00:26N 34°02' W 119°31'0 0.0
2017-Oct-08 23:50N 34°02' W 119°31'  

Dump ship's entire track history